createdAt,value
2023-04-23T00:00:15.020Z,1001.87
2023-04-23T00:05:15.783Z,1001.82
2023-04-23T00:10:16.517Z,1001.84
2023-04-23T00:15:17.293Z,1001.79
2023-04-23T00:20:17.972Z,1001.75
2023-04-23T00:25:18.692Z,1001.71
2023-04-23T00:30:19.408Z,1001.70
2023-04-23T00:35:20.145Z,1001.67
2023-04-23T00:40:20.876Z,1001.62
2023-04-23T00:45:21.561Z,1001.59
2023-04-23T00:50:22.396Z,1001.55
2023-04-23T00:55:23.055Z,1001.51
2023-04-23T01:00:23.760Z,1001.47
2023-04-23T01:05:24.483Z,1001.44
2023-04-23T01:10:25.226Z,1001.43
2023-04-23T01:15:25.928Z,1001.43
2023-04-23T01:20:26.677Z,1001.44
2023-04-23T01:25:27.419Z,1001.45
2023-04-23T01:30:28.114Z,1001.37
2023-04-23T01:35:28.838Z,1001.43
2023-04-23T01:40:29.579Z,1001.42
2023-04-23T01:45:30.285Z,1001.45
2023-04-23T01:50:31.018Z,1001.45
2023-04-23T01:55:31.744Z,1001.42
2023-04-23T02:00:32.435Z,1001.41
2023-04-23T02:05:33.165Z,1001.39
2023-04-23T02:10:33.875Z,1001.33
2023-04-23T02:15:34.599Z,1001.28
2023-04-23T02:20:35.320Z,1001.34
2023-04-23T02:25:36.100Z,1001.25
2023-04-23T02:30:36.837Z,1001.27
2023-04-23T02:35:37.573Z,1001.24
2023-04-23T02:40:38.304Z,1001.23
2023-04-23T02:45:39.046Z,1001.22
2023-04-23T02:50:39.770Z,1001.26
2023-04-23T02:55:40.469Z,1001.21
2023-04-23T03:00:41.243Z,1001.24
2023-04-23T03:05:41.916Z,1001.15
2023-04-23T03:10:42.668Z,1001.10
2023-04-23T03:15:43.381Z,1001.07
2023-04-23T03:20:44.090Z,1001.05
2023-04-23T03:25:44.806Z,1001.05
2023-04-23T03:30:45.549Z,1001.04
2023-04-23T03:35:46.201Z,1001.03
2023-04-23T03:40:46.865Z,1001.00
2023-04-23T03:45:47.556Z,1001.00
2023-04-23T03:50:48.194Z,1000.99
2023-04-23T03:55:48.863Z,1001.00
2023-04-23T04:00:49.520Z,1000.95
2023-04-23T04:05:50.279Z,1000.92
2023-04-23T04:10:51.037Z,1000.88
2023-04-23T04:15:51.724Z,1000.83
2023-04-23T04:20:52.386Z,1000.85
2023-04-23T04:25:53.024Z,1000.84
2023-04-23T04:30:53.690Z,1000.89
2023-04-23T04:35:54.366Z,1000.89
2023-04-23T04:40:55.040Z,1000.86
2023-04-23T04:45:55.674Z,1000.87
2023-04-23T04:50:56.361Z,1000.95
2023-04-23T04:55:57.010Z,1001.01
2023-04-23T05:00:57.737Z,1001.04
2023-04-23T05:05:58.349Z,1000.97
2023-04-23T05:10:59.024Z,1001.06
2023-04-23T05:15:59.702Z,1001.05
2023-04-23T05:21:00.366Z,1001.07
2023-04-23T05:26:08.030Z,1001.07
2023-04-23T05:31:01.667Z,1001.11
2023-04-23T05:36:02.382Z,1001.10
2023-04-23T05:41:02.994Z,1001.10
2023-04-23T05:46:03.686Z,1001.17
2023-04-23T05:51:04.361Z,1001.26
2023-04-23T05:56:05.026Z,1001.23
2023-04-23T06:01:05.669Z,1001.25
2023-04-23T06:06:06.379Z,1001.25
2023-04-23T06:11:07.016Z,1001.23
2023-04-23T06:16:07.722Z,1001.26
2023-04-23T06:21:08.351Z,1001.25
2023-04-23T06:26:09.013Z,1001.29
2023-04-23T06:31:09.858Z,1001.27
2023-04-23T06:36:10.492Z,1001.28
2023-04-23T06:41:11.165Z,1001.29
2023-04-23T06:46:11.855Z,1001.29
2023-04-23T06:51:12.482Z,1001.30
2023-04-23T06:56:13.146Z,1001.29
2023-04-23T07:01:13.868Z,1001.28
2023-04-23T07:06:14.624Z,1001.38
2023-04-23T07:11:15.233Z,1001.41
2023-04-23T07:16:15.929Z,1001.50
2023-04-23T07:21:16.555Z,1001.49
2023-04-23T07:26:17.271Z,1001.52
2023-04-23T07:31:17.919Z,1001.52
2023-04-23T07:36:18.631Z,1001.56
2023-04-23T07:41:19.481Z,1001.58
2023-04-23T07:46:20.141Z,1001.61
2023-04-23T07:51:20.855Z,1001.63
2023-04-23T07:56:21.523Z,1001.60
2023-04-23T08:01:22.177Z,1001.66
2023-04-23T08:06:22.847Z,1001.65
2023-04-23T08:11:23.531Z,1001.70
2023-04-23T08:16:24.310Z,1001.72
2023-04-23T08:21:24.927Z,1001.70
2023-04-23T08:26:25.597Z,1001.65
2023-04-23T08:31:27.402Z,1001.57
2023-04-23T08:36:26.782Z,1001.66
2023-04-23T08:41:27.392Z,1001.66
2023-04-23T08:46:28.082Z,1001.69
2023-04-23T08:51:28.719Z,1001.69
2023-04-23T08:56:29.403Z,1001.65
2023-04-23T09:01:30.080Z,1001.66
2023-04-23T09:06:30.752Z,1001.75
2023-04-23T09:11:31.456Z,1001.76
2023-04-23T09:16:32.117Z,1001.78
2023-04-23T09:21:32.744Z,1001.83
2023-04-23T09:26:33.427Z,1001.88
2023-04-23T09:31:34.128Z,1001.92
2023-04-23T09:36:34.731Z,1001.96
2023-04-23T09:41:35.398Z,1002.07
2023-04-23T09:46:36.061Z,1002.09
2023-04-23T09:51:36.767Z,1002.13
2023-04-23T09:56:37.408Z,1002.18
2023-04-23T10:01:38.084Z,1002.21
2023-04-23T10:06:47.079Z,1002.18
2023-04-23T10:11:40.316Z,1002.28
2023-04-23T10:16:48.804Z,1002.34
2023-04-23T10:21:53.402Z,1002.39
2023-04-23T10:26:42.170Z,1002.38
2023-04-23T10:31:41.861Z,1002.45
2023-04-23T10:36:42.518Z,1002.41
2023-04-23T10:41:43.201Z,1002.39
2023-04-23T10:46:43.927Z,1002.27
2023-04-23T10:56:45.124Z,1002.20
2023-04-23T11:01:45.826Z,1002.24
2023-04-23T11:06:46.462Z,1002.35
2023-04-23T11:11:47.124Z,1002.38
2023-04-23T11:16:48.153Z,1002.38
2023-04-23T11:21:48.474Z,1002.34
2023-04-23T11:26:49.130Z,1002.31
2023-04-23T11:32:01.371Z,1002.28
2023-04-23T11:36:51.396Z,1002.39
2023-04-23T11:41:51.029Z,1002.46
2023-04-23T11:46:51.697Z,1002.44
2023-04-23T11:51:52.374Z,1002.39
2023-04-23T11:56:53.053Z,1002.33
2023-04-23T12:01:53.712Z,1002.37
2023-04-23T12:06:54.387Z,1002.30
2023-04-23T12:11:55.121Z,1002.26
2023-04-23T12:16:55.763Z,1002.39
2023-04-23T12:21:56.477Z,1002.37
2023-04-23T12:26:57.161Z,1002.48
2023-04-23T12:31:57.763Z,1002.47
2023-04-23T12:36:58.437Z,1002.48
2023-04-23T12:41:59.107Z,1002.53
2023-04-23T12:46:59.843Z,1002.46
2023-04-23T12:52:00.528Z,1002.41
2023-04-23T12:57:01.185Z,1002.35
2023-04-23T13:02:02.012Z,1002.33
2023-04-23T13:07:02.567Z,1002.28
2023-04-23T13:12:03.233Z,1002.25
2023-04-23T13:17:03.896Z,1002.23
2023-04-23T13:22:04.540Z,1002.20
2023-04-23T13:27:05.201Z,1002.17
2023-04-23T13:32:06.041Z,1002.16
2023-04-23T13:37:06.671Z,1002.07
2023-04-23T13:42:09.897Z,1002.04
2023-04-23T13:47:07.857Z,1001.96
2023-04-23T13:52:08.595Z,1001.98
2023-04-23T13:57:09.209Z,1001.94
2023-04-23T14:02:09.885Z,1001.90
2023-04-23T14:07:10.558Z,1001.87
2023-04-23T14:12:11.172Z,1001.83
2023-04-23T14:17:11.835Z,1001.86
2023-04-23T14:22:12.525Z,1001.75
2023-04-23T14:27:13.216Z,1001.70
2023-04-23T14:32:13.875Z,1001.67
2023-04-23T14:37:14.582Z,1001.62
2023-04-23T14:42:15.232Z,1001.52
2023-04-23T14:47:15.926Z,1001.52
2023-04-23T14:52:16.540Z,1001.52
2023-04-23T14:57:17.247Z,1001.48
2023-04-23T15:02:17.945Z,1001.51
2023-04-23T15:07:18.627Z,1001.45
2023-04-23T15:12:19.291Z,1001.33
2023-04-23T15:17:19.973Z,1001.28
2023-04-23T15:22:20.625Z,1001.18
2023-04-23T15:27:21.262Z,1001.14
2023-04-23T15:32:21.961Z,1001.08
2023-04-23T15:37:22.661Z,1001.09
2023-04-23T15:42:23.332Z,1001.12
2023-04-23T15:47:24.024Z,1001.07
2023-04-23T15:52:24.681Z,1001.07
2023-04-23T15:57:25.342Z,1001.10
2023-04-23T16:02:26.103Z,1001.07
2023-04-23T16:07:26.853Z,1000.97
2023-04-23T16:12:27.523Z,1000.88
2023-04-23T16:17:28.243Z,1000.83
2023-04-23T16:22:28.892Z,1000.82
2023-04-23T16:27:29.562Z,1000.78
2023-04-23T16:32:30.282Z,1000.70
2023-04-23T16:37:30.926Z,1000.66
2023-04-23T16:42:31.605Z,1000.63
2023-04-23T16:47:32.282Z,1000.61
2023-04-23T16:52:33.017Z,1000.59
2023-04-23T16:57:33.651Z,1000.60
2023-04-23T17:02:34.525Z,1000.56
2023-04-23T17:07:34.828Z,1000.46
2023-04-23T17:12:35.599Z,1000.40
2023-04-23T17:17:36.251Z,1000.36
2023-04-23T17:22:36.882Z,1000.35
2023-04-23T17:27:37.591Z,1000.34
2023-04-23T17:32:38.320Z,1000.29
2023-04-23T17:37:39.021Z,1000.21
2023-04-23T17:42:39.634Z,1000.23
2023-04-23T17:47:40.383Z,1000.23
2023-04-23T17:52:41.116Z,1000.21
2023-04-23T17:57:41.884Z,1000.23
2023-04-23T18:02:42.559Z,1000.18
2023-04-23T18:07:43.223Z,1000.20
2023-04-23T18:12:44.001Z,1000.23
2023-04-23T18:17:44.669Z,1000.29
2023-04-23T18:22:45.377Z,1000.30
2023-04-23T18:27:46.271Z,1000.34
2023-04-23T18:32:47.102Z,1000.34
2023-04-23T18:37:47.873Z,1000.42
2023-04-23T18:42:48.552Z,1000.47
2023-04-23T18:47:49.323Z,1000.51
2023-04-23T18:52:49.949Z,1000.48
2023-04-23T18:57:50.634Z,1000.45
2023-04-23T19:02:51.529Z,1000.42
2023-04-23T19:07:52.538Z,1000.37
2023-04-23T19:12:53.236Z,1000.34
2023-04-23T19:17:54.047Z,1000.36
2023-04-23T19:22:54.805Z,1000.38
2023-04-23T19:27:56.064Z,1000.36
2023-04-23T19:32:56.299Z,1000.36
2023-04-23T19:37:57.012Z,1000.30
2023-04-23T19:42:57.797Z,1000.21
2023-04-23T19:47:58.780Z,1000.15
2023-04-23T19:52:59.526Z,1000.11
2023-04-23T19:58:00.312Z,1000.12
2023-04-23T20:03:01.307Z,1000.05
2023-04-23T20:08:01.765Z,1000.02
2023-04-23T20:13:03.485Z,1000.01
2023-04-23T20:18:03.375Z,1000.00
2023-04-23T20:23:04.095Z,999.88
2023-04-23T20:28:04.823Z,999.88
2023-04-23T20:33:05.612Z,999.94
2023-04-23T20:38:06.659Z,999.92
2023-04-23T20:43:06.900Z,999.84
2023-04-23T20:48:07.627Z,999.77
2023-04-23T20:53:08.352Z,999.75
2023-04-23T20:58:09.143Z,999.67
2023-04-23T21:03:10.272Z,999.56
2023-04-23T21:08:10.630Z,999.45
2023-04-23T21:13:11.371Z,999.44
2023-04-23T21:18:12.094Z,999.37
2023-04-23T21:23:12.865Z,999.30
2023-04-23T21:28:13.557Z,999.19
2023-04-23T21:33:14.301Z,999.16
2023-04-23T21:38:15.039Z,999.09
2023-04-23T21:43:22.935Z,999.02
2023-04-23T21:48:16.653Z,998.95
2023-04-23T21:53:17.364Z,998.85
2023-04-23T21:58:18.357Z,998.86
2023-04-23T22:03:23.608Z,998.88
2023-04-23T22:08:20.179Z,998.88
2023-04-23T22:13:21.526Z,998.98
2023-04-23T22:18:20.357Z,999.05
2023-04-23T22:23:21.074Z,999.07
2023-04-23T22:28:21.815Z,999.09
2023-04-23T22:33:22.517Z,999.05
2023-04-23T22:38:23.246Z,998.98
2023-04-23T22:43:23.965Z,998.93
2023-04-23T22:48:24.709Z,998.91
2023-04-23T22:53:25.415Z,998.88
2023-04-23T22:58:26.154Z,998.75
2023-04-23T23:03:27.129Z,998.60
2023-04-23T23:08:27.456Z,998.53
2023-04-23T23:13:28.158Z,998.44
2023-04-23T23:18:28.895Z,998.38
2023-04-23T23:23:29.704Z,998.24
2023-04-23T23:28:30.345Z,998.17
2023-04-23T23:33:31.065Z,998.11
2023-04-23T23:38:31.890Z,998.08
2023-04-23T23:43:32.545Z,997.95
2023-04-23T23:48:33.264Z,997.94
2023-04-23T23:53:33.979Z,997.88
2023-04-23T23:58:34.709Z,997.81
